sensor_id;sensor_type;location;lat;lon;timestamp;pressure;altitude;pressure_sealevel;temperature;humidity
61472;BME280;47337;54.068;12.114;2023-05-19T00:02:17;102565.13;;;5.79;100.00
61472;BME280;47337;54.068;12.114;2023-05-19T00:04:45;102565.13;;;5.79;100.00
61472;BME280;47337;54.068;12.114;2023-05-19T00:07:17;102575.47;;;5.78;100.00
61472;BME280;47337;54.068;12.114;2023-05-19T00:09:46;102573.56;;;5.75;100.00
61472;BME280;47337;54.068;12.114;2023-05-19T00:12:12;102576.16;;;5.75;100.00
61472;BME280;47337;54.068;12.114;2023-05-19T00:14:40;102580.97;;;5.82;100.00
61472;BME280;47337;54.068;12.114;2023-05-19T00:17:06;102588.25;;;5.88;100.00
61472;BME280;47337;54.068;12.114;2023-05-19T00:19:31;102589.34;;;5.92;100.00
61472;BME280;47337;54.068;12.114;2023-05-19T00:21:57;102590.31;;;5.94;100.00
61472;BME280;47337;54.068;12.114;2023-05-19T00:24:23;102587.31;;;6.17;100.00
61472;BME280;47337;54.068;12.114;2023-05-19T00:26:48;102580.81;;;6.25;100.00
61472;BME280;47337;54.068;12.114;2023-05-19T00:29:14;102589.22;;;6.19;100.00
61472;BME280;47337;54.068;12.114;2023-05-19T00:31:42;102593.63;;;6.06;100.00
61472;BME280;47337;54.068;12.114;2023-05-19T00:34:08;102594.91;;;6.12;100.00
61472;BME280;47337;54.068;12.114;2023-05-19T00:36:33;102596.69;;;6.13;100.00
61472;BME280;47337;54.068;12.114;2023-05-19T00:38:58;102593.00;;;6.10;100.00
61472;BME280;47337;54.068;12.114;2023-05-19T00:41:24;102597.41;;;6.11;100.00
61472;BME280;47337;54.068;12.114;2023-05-19T00:43:51;102591.03;;;6.06;100.00
61472;BME280;47337;54.068;12.114;2023-05-19T00:46:18;102598.84;;;6.06;100.00
61472;BME280;47337;54.068;12.114;2023-05-19T00:48:47;102590.22;;;6.07;100.00
61472;BME280;47337;54.068;12.114;2023-05-19T00:51:12;102596.88;;;6.02;100.00
61472;BME280;47337;54.068;12.114;2023-05-19T00:53:40;102596.88;;;6.02;100.00
61472;BME280;47337;54.068;12.114;2023-05-19T00:56:13;102595.44;;;6.07;100.00
61472;BME280;47337;54.068;12.114;2023-05-19T00:58:43;102593.81;;;6.09;100.00
61472;BME280;47337;54.068;12.114;2023-05-19T01:01:09;102606.56;;;6.19;100.00
61472;BME280;47337;54.068;12.114;2023-05-19T01:03:38;102606.22;;;6.13;100.00
61472;BME280;47337;54.068;12.114;2023-05-19T01:06:05;102604.53;;;6.13;100.00
61472;BME280;47337;54.068;12.114;2023-05-19T01:08:36;102605.69;;;6.04;100.00
61472;BME280;47337;54.068;12.114;2023-05-19T01:11:02;102609.53;;;5.96;100.00
61472;BME280;47337;54.068;12.114;2023-05-19T01:13:28;102599.19;;;5.82;100.00
61472;BME280;47337;54.068;12.114;2023-05-19T01:16:21;102602.41;;;5.78;100.00
61472;BME280;47337;54.068;12.114;2023-05-19T01:27:28;102611.13;;;5.64;100.00
61472;BME280;47337;54.068;12.114;2023-05-19T01:32:41;102619.81;;;5.50;100.00
61472;BME280;47337;54.068;12.114;2023-05-19T01:35:08;102613.22;;;5.42;100.00
61472;BME280;47337;54.068;12.114;2023-05-19T01:37:36;102604.25;;;5.37;100.00
61472;BME280;47337;54.068;12.114;2023-05-19T01:40:03;102609.47;;;5.37;100.00
61472;BME280;47337;54.068;12.114;2023-05-19T01:42:30;102610.78;;;5.30;100.00
61472;BME280;47337;54.068;12.114;2023-05-19T01:45:02;102619.22;;;5.26;100.00
61472;BME280;47337;54.068;12.114;2023-05-19T01:47:33;102614.91;;;5.27;100.00
61472;BME280;47337;54.068;12.114;2023-05-19T01:49:59;102621.94;;;5.28;100.00
61472;BME280;47337;54.068;12.114;2023-05-19T01:52:24;102633.75;;;5.23;100.00
61472;BME280;47337;54.068;12.114;2023-05-19T01:54:52;102631.94;;;5.22;100.00
61472;BME280;47337;54.068;12.114;2023-05-19T02:00:14;102637.38;;;5.11;100.00
61472;BME280;47337;54.068;12.114;2023-05-19T02:06:02;102642.63;;;4.98;100.00
61472;BME280;47337;54.068;12.114;2023-05-19T02:11:19;102638.75;;;4.92;100.00
61472;BME280;47337;54.068;12.114;2023-05-19T02:13:49;102636.84;;;4.89;100.00
61472;BME280;47337;54.068;12.114;2023-05-19T02:16:19;102638.06;;;4.81;100.00
61472;BME280;47337;54.068;12.114;2023-05-19T02:18:46;102636.06;;;4.77;100.00
61472;BME280;47337;54.068;12.114;2023-05-19T02:21:12;102639.28;;;4.73;100.00
61472;BME280;47337;54.068;12.114;2023-05-19T02:23:39;102640.28;;;4.75;100.00
61472;BME280;47337;54.068;12.114;2023-05-19T02:26:06;102636.94;;;4.77;100.00
61472;BME280;47337;54.068;12.114;2023-05-19T02:28:36;102636.69;;;4.73;100.00
61472;BME280;47337;54.068;12.114;2023-05-19T02:31:02;102640.41;;;4.63;100.00
61472;BME280;47337;54.068;12.114;2023-05-19T02:33:29;102636.47;;;4.57;100.00
61472;BME280;47337;54.068;12.114;2023-05-19T02:35:57;102642.59;;;4.57;100.00
61472;BME280;47337;54.068;12.114;2023-05-19T02:38:25;102646.72;;;4.54;100.00
61472;BME280;47337;54.068;12.114;2023-05-19T02:40:51;102649.91;;;4.50;100.00
61472;BME280;47337;54.068;12.114;2023-05-19T02:43:17;102649.78;;;4.48;100.00
61472;BME280;47337;54.068;12.114;2023-05-19T02:45:46;102651.72;;;4.51;100.00
61472;BME280;47337;54.068;12.114;2023-05-19T02:48:11;102656.53;;;4.45;100.00
61472;BME280;47337;54.068;12.114;2023-05-19T02:50:39;102658.13;;;4.43;100.00
61472;BME280;47337;54.068;12.114;2023-05-19T02:53:07;102666.09;;;4.46;100.00
61472;BME280;47337;54.068;12.114;2023-05-19T02:55:32;102669.59;;;4.46;100.00
61472;BME280;47337;54.068;12.114;2023-05-19T02:58:01;102672.81;;;4.42;100.00
61472;BME280;47337;54.068;12.114;2023-05-19T03:00:26;102674.00;;;4.47;100.00
61472;BME280;47337;54.068;12.114;2023-05-19T03:02:52;102669.31;;;4.41;100.00
61472;BME280;47337;54.068;12.114;2023-05-19T03:05:19;102669.00;;;4.50;100.00
61472;BME280;47337;54.068;12.114;2023-05-19T03:07:44;102669.31;;;4.55;100.00
61472;BME280;47337;54.068;12.114;2023-05-19T03:10:10;102677.59;;;4.62;100.00
61472;BME280;47337;54.068;12.114;2023-05-19T03:12:36;102680.50;;;4.67;100.00
61472;BME280;47337;54.068;12.114;2023-05-19T03:15:01;102678.09;;;4.70;100.00
61472;BME280;47337;54.068;12.114;2023-05-19T03:17:27;102677.41;;;4.72;100.00
61472;BME280;47337;54.068;12.114;2023-05-19T03:19:57;102672.38;;;4.89;100.00
61472;BME280;47337;54.068;12.114;2023-05-19T03:22:25;102677.88;;;4.93;100.00
61472;BME280;47337;54.068;12.114;2023-05-19T03:24:50;102673.16;;;5.01;100.00
61472;BME280;47337;54.068;12.114;2023-05-19T03:27:18;102665.75;;;5.07;100.00
61472;BME280;47337;54.068;12.114;2023-05-19T03:29:46;102672.22;;;5.13;100.00
61472;BME280;47337;54.068;12.114;2023-05-19T03:32:14;102676.50;;;5.26;100.00
61472;BME280;47337;54.068;12.114;2023-05-19T03:34:44;102680.44;;;5.47;100.00
61472;BME280;47337;54.068;12.114;2023-05-19T03:37:09;102682.50;;;5.53;100.00
61472;BME280;47337;54.068;12.114;2023-05-19T03:39:35;102693.41;;;5.61;100.00
61472;BME280;47337;54.068;12.114;2023-05-19T03:42:00;102690.47;;;5.69;100.00
61472;BME280;47337;54.068;12.114;2023-05-19T03:44:26;102686.31;;;5.73;100.00
61472;BME280;47337;54.068;12.114;2023-05-19T03:46:51;102688.28;;;5.90;100.00
61472;BME280;47337;54.068;12.114;2023-05-19T03:49:19;102685.34;;;6.13;100.00
61472;BME280;47337;54.068;12.114;2023-05-19T03:51:45;102693.97;;;6.42;100.00
61472;BME280;47337;54.068;12.114;2023-05-19T03:54:11;102693.44;;;6.78;100.00
61472;BME280;47337;54.068;12.114;2023-05-19T03:56:38;102695.09;;;7.07;100.00
61472;BME280;47337;54.068;12.114;2023-05-19T03:59:03;102697.19;;;7.45;100.00
61472;BME280;47337;54.068;12.114;2023-05-19T04:01:33;102700.19;;;8.01;100.00
61472;BME280;47337;54.068;12.114;2023-05-19T04:04:01;102703.00;;;8.92;100.00
61472;BME280;47337;54.068;12.114;2023-05-19T04:06:27;102690.47;;;9.99;100.00
61472;BME280;47337;54.068;12.114;2023-05-19T04:08:52;102684.53;;;10.86;100.00
61472;BME280;47337;54.068;12.114;2023-05-19T04:11:17;102625.97;;;11.82;100.00
61472;BME280;47337;54.068;12.114;2023-05-19T04:13:44;102549.31;;;12.52;100.00
61472;BME280;47337;54.068;12.114;2023-05-19T04:16:12;102473.78;;;12.81;100.00
61472;BME280;47337;54.068;12.114;2023-05-19T04:18:38;102414.34;;;13.24;100.00
61472;BME280;47337;54.068;12.114;2023-05-19T04:21:05;102359.53;;;13.85;100.00
61472;BME280;47337;54.068;12.114;2023-05-19T04:23:33;102290.09;;;14.33;100.00
61472;BME280;47337;54.068;12.114;2023-05-19T04:25:59;102263.38;;;14.61;98.86
61472;BME280;47337;54.068;12.114;2023-05-19T04:28:25;102237.31;;;14.36;94.67
61472;BME280;47337;54.068;12.114;2023-05-19T04:30:54;102222.72;;;15.09;91.92
61472;BME280;47337;54.068;12.114;2023-05-19T04:33:20;102183.66;;;14.91;88.55
61472;BME280;47337;54.068;12.114;2023-05-19T04:35:46;102189.19;;;15.08;87.27
61472;BME280;47337;54.068;12.114;2023-05-19T04:38:11;102130.63;;;15.47;83.73
61472;BME280;47337;54.068;12.114;2023-05-19T04:40:37;102131.97;;;15.16;83.14
61472;BME280;47337;54.068;12.114;2023-05-19T04:43:04;102129.22;;;14.00;83.17
61472;BME280;47337;54.068;12.114;2023-05-19T04:45:31;102176.22;;;13.31;85.24
61472;BME280;47337;54.068;12.114;2023-05-19T04:47:57;102221.97;;;13.72;86.44
61472;BME280;47337;54.068;12.114;2023-05-19T04:50:23;102205.00;;;12.84;86.77
61472;BME280;47337;54.068;12.114;2023-05-19T04:52:52;102227.81;;;13.18;87.26
61472;BME280;47337;54.068;12.114;2023-05-19T04:55:18;102219.28;;;12.58;88.04
61472;BME280;47337;54.068;12.114;2023-05-19T04:57:43;102241.47;;;12.67;88.53
61472;BME280;47337;54.068;12.114;2023-05-19T05:00:09;102242.78;;;12.50;89.06
61472;BME280;47337;54.068;12.114;2023-05-19T05:02:38;102241.88;;;12.48;89.23
61472;BME280;47337;54.068;12.114;2023-05-19T05:05:03;102260.44;;;12.54;90.03
61472;BME280;47337;54.068;12.114;2023-05-19T05:07:31;102248.75;;;12.12;90.09
61472;BME280;47337;54.068;12.114;2023-05-19T05:09:59;102266.47;;;11.87;91.06
61472;BME280;47337;54.068;12.114;2023-05-19T05:12:28;102278.56;;;11.81;92.01
61472;BME280;47337;54.068;12.114;2023-05-19T05:14:53;102283.94;;;11.84;92.16
61472;BME280;47337;54.068;12.114;2023-05-19T05:17:19;102292.63;;;12.11;92.47
61472;BME280;47337;54.068;12.114;2023-05-19T05:19:45;102287.59;;;11.89;92.27
61472;BME280;47337;54.068;12.114;2023-05-19T05:22:12;102296.19;;;11.83;93.02
61472;BME280;47337;54.068;12.114;2023-05-19T05:24:38;102309.47;;;11.59;93.54
61472;BME280;47337;54.068;12.114;2023-05-19T05:27:04;102317.59;;;11.67;94.16
61472;BME280;47337;54.068;12.114;2023-05-19T05:29:30;102320.56;;;11.78;94.60
61472;BME280;47337;54.068;12.114;2023-05-19T05:31:55;102313.19;;;11.94;94.09
61472;BME280;47337;54.068;12.114;2023-05-19T05:34:21;102298.16;;;11.90;93.50
61472;BME280;47337;54.068;12.114;2023-05-19T05:36:46;102305.25;;;12.23;93.29
61472;BME280;47337;54.068;12.114;2023-05-19T05:39:11;102289.47;;;12.56;92.60
61472;BME280;47337;54.068;12.114;2023-05-19T05:41:37;102274.97;;;12.38;91.19
61472;BME280;47337;54.068;12.114;2023-05-19T05:44:05;102267.13;;;12.74;90.22
61472;BME280;47337;54.068;12.114;2023-05-19T05:46:31;102260.34;;;12.84;89.78
61472;BME280;47337;54.068;12.114;2023-05-19T05:48:58;102258.22;;;13.40;89.03
61472;BME280;47337;54.068;12.114;2023-05-19T05:51:24;102237.63;;;13.63;87.43
61472;BME280;47337;54.068;12.114;2023-05-19T05:53:53;102212.22;;;14.13;85.88
61472;BME280;47337;54.068;12.114;2023-05-19T05:56:20;102196.69;;;14.31;84.80
61472;BME280;47337;54.068;12.114;2023-05-19T05:58:45;102163.63;;;13.58;84.08
61472;BME280;47337;54.068;12.114;2023-05-19T06:01:13;102185.50;;;13.13;84.85
61472;BME280;47337;54.068;12.114;2023-05-19T06:03:42;102220.06;;;13.26;85.89
61472;BME280;47337;54.068;12.114;2023-05-19T06:06:12;102223.50;;;13.22;86.30
61472;BME280;47337;54.068;12.114;2023-05-19T06:08:38;102220.47;;;13.42;85.79
61472;BME280;47337;54.068;12.114;2023-05-19T06:11:03;102218.75;;;13.88;85.45
61472;BME280;47337;54.068;12.114;2023-05-19T06:13:36;102205.66;;;13.92;84.44
61472;BME280;47337;54.068;12.114;2023-05-19T06:16:07;102197.63;;;13.88;84.16
61472;BME280;47337;54.068;12.114;2023-05-19T06:18:32;102206.78;;;14.52;83.76
61472;BME280;47337;54.068;12.114;2023-05-19T06:21:01;102191.94;;;14.12;83.41
61472;BME280;47337;54.068;12.114;2023-05-19T06:23:28;102199.19;;;14.22;83.64
61472;BME280;47337;54.068;12.114;2023-05-19T06:25:54;102187.25;;;13.96;83.42
61472;BME280;47337;54.068;12.114;2023-05-19T06:28:20;102207.53;;;13.56;84.42
61472;BME280;47337;54.068;12.114;2023-05-19T06:30:46;102213.84;;;14.05;84.15
61472;BME280;47337;54.068;12.114;2023-05-19T06:33:11;102206.34;;;13.82;84.11
61472;BME280;47337;54.068;12.114;2023-05-19T06:35:36;102232.22;;;13.58;85.22
61472;BME280;47337;54.068;12.114;2023-05-19T06:38:02;102255.13;;;14.01;85.57
61472;BME280;47337;54.068;12.114;2023-05-19T06:40:27;102238.47;;;14.04;85.46
61472;BME280;47337;54.068;12.114;2023-05-19T06:42:53;102227.78;;;13.98;85.42
61472;BME280;47337;54.068;12.114;2023-05-19T06:45:18;102231.31;;;14.00;85.70
61472;BME280;47337;54.068;12.114;2023-05-19T06:47:49;102237.50;;;14.96;84.89
61472;BME280;47337;54.068;12.114;2023-05-19T06:50:15;102197.81;;;14.95;83.30
61472;BME280;47337;54.068;12.114;2023-05-19T06:52:40;102189.59;;;15.35;82.28
61472;BME280;47337;54.068;12.114;2023-05-19T06:55:11;102170.94;;;15.25;81.64
61472;BME280;47337;54.068;12.114;2023-05-19T06:57:36;102168.81;;;15.63;81.07
61472;BME280;47337;54.068;12.114;2023-05-19T07:00:02;102162.88;;;15.17;80.89
61472;BME280;47337;54.068;12.114;2023-05-19T07:02:30;102170.53;;;15.61;80.67
61472;BME280;47337;54.068;12.114;2023-05-19T07:04:56;102151.56;;;15.29;80.12
61472;BME280;47337;54.068;12.114;2023-05-19T07:07:21;102176.06;;;15.16;80.95
61472;BME280;47337;54.068;12.114;2023-05-19T07:09:47;102206.78;;;15.65;81.38
61472;BME280;47337;54.068;12.114;2023-05-19T07:12:12;102150.41;;;15.73;79.14
61472;BME280;47337;54.068;12.114;2023-05-19T07:14:40;102154.28;;;16.07;79.04
61472;BME280;47337;54.068;12.114;2023-05-19T07:17:05;102130.44;;;16.07;77.92
61472;BME280;47337;54.068;12.114;2023-05-19T07:19:31;102144.16;;;15.67;78.31
61472;BME280;47337;54.068;12.114;2023-05-19T07:21:56;102138.34;;;16.04;78.18
61472;BME280;47337;54.068;12.114;2023-05-19T07:24:23;102131.84;;;16.66;76.78
61472;BME280;47337;54.068;12.114;2023-05-19T07:26:49;102102.72;;;16.69;76.14
61472;BME280;47337;54.068;12.114;2023-05-19T07:29:14;102116.00;;;16.76;76.26
61472;BME280;47337;54.068;12.114;2023-05-19T07:31:41;102086.84;;;16.78;75.46
61472;BME280;47337;54.068;12.114;2023-05-19T07:34:10;102083.56;;;17.32;74.49
61472;BME280;47337;54.068;12.114;2023-05-19T07:36:35;102053.53;;;17.48;73.15
61472;BME280;47337;54.068;12.114;2023-05-19T07:39:01;102035.69;;;17.02;73.01
61472;BME280;47337;54.068;12.114;2023-05-19T07:41:26;102053.94;;;16.50;73.88
61472;BME280;47337;54.068;12.114;2023-05-19T07:43:52;102073.56;;;16.76;74.02
61472;BME280;47337;54.068;12.114;2023-05-19T07:46:17;102061.47;;;17.41;73.30
61472;BME280;47337;54.068;12.114;2023-05-19T07:48:43;102019.91;;;17.50;71.96
61472;BME280;47337;54.068;12.114;2023-05-19T07:51:08;102023.31;;;17.07;72.16
61472;BME280;47337;54.068;12.114;2023-05-19T07:53:36;102035.84;;;17.46;72.00
61472;BME280;47337;54.068;12.114;2023-05-19T07:56:07;102014.53;;;17.23;71.30
61472;BME280;47337;54.068;12.114;2023-05-19T07:58:32;102028.75;;;17.37;71.83
61472;BME280;47337;54.068;12.114;2023-05-19T08:00:58;102008.47;;;18.00;70.34
61472;BME280;47337;54.068;12.114;2023-05-19T08:03:24;101974.75;;;17.44;70.20
61472;BME280;47337;54.068;12.114;2023-05-19T08:05:49;101988.06;;;18.13;69.62
61472;BME280;47337;54.068;12.114;2023-05-19T08:08:15;101947.34;;;17.92;68.43
61472;BME280;47337;54.068;12.114;2023-05-19T08:10:41;101959.69;;;17.40;69.15
61472;BME280;47337;54.068;12.114;2023-05-19T08:13:07;101966.78;;;17.26;69.46
61472;BME280;47337;54.068;12.114;2023-05-19T08:15:32;101973.81;;;17.27;69.36
61472;BME280;47337;54.068;12.114;2023-05-19T08:17:57;101980.00;;;17.11;69.49
61472;BME280;47337;54.068;12.114;2023-05-19T08:20:23;101978.28;;;17.37;69.32
61472;BME280;47337;54.068;12.114;2023-05-19T08:22:48;101949.06;;;17.27;69.00
61472;BME280;47337;54.068;12.114;2023-05-19T08:25:16;101961.50;;;17.53;68.55
61472;BME280;47337;54.068;12.114;2023-05-19T08:27:43;101942.88;;;17.34;68.14
61472;BME280;47337;54.068;12.114;2023-05-19T08:30:12;101954.28;;;16.98;68.74
61472;BME280;47337;54.068;12.114;2023-05-19T08:32:37;101954.38;;;17.22;68.48
61472;BME280;47337;54.068;12.114;2023-05-19T08:35:03;101946.44;;;17.42;68.10
61472;BME280;47337;54.068;12.114;2023-05-19T08:37:28;101931.41;;;17.45;67.24
61472;BME280;47337;54.068;12.114;2023-05-19T08:39:56;101918.97;;;17.38;67.22
61472;BME280;47337;54.068;12.114;2023-05-19T08:42:23;101920.81;;;17.79;66.67
61472;BME280;47337;54.068;12.114;2023-05-19T08:44:49;101874.75;;;17.74;65.13
61472;BME280;47337;54.068;12.114;2023-05-19T08:47:15;101869.44;;;17.52;65.33
61472;BME280;47337;54.068;12.114;2023-05-19T08:49:43;101846.41;;;17.27;64.85
61472;BME280;47337;54.068;12.114;2023-05-19T08:54:59;101870.31;;;17.70;64.75
61472;BME280;47337;54.068;12.114;2023-05-19T08:57:28;101821.66;;;17.46;63.48
61472;BME280;47337;54.068;12.114;2023-05-19T08:59:55;101831.38;;;17.38;63.96
61472;BME280;47337;54.068;12.114;2023-05-19T09:02:23;101810.16;;;17.08;63.66
61472;BME280;47337;54.068;12.114;2023-05-19T09:04:49;101853.50;;;17.43;63.92
61472;BME280;47337;54.068;12.114;2023-05-19T09:07:18;101849.97;;;17.66;63.64
61472;BME280;47337;54.068;12.114;2023-05-19T09:09:45;101843.78;;;17.58;63.80
61472;BME280;47337;54.068;12.114;2023-05-19T09:12:12;101852.63;;;17.73;63.82
61472;BME280;47337;54.068;12.114;2023-05-19T09:14:38;101842.88;;;17.40;63.94
61472;BME280;47337;54.068;12.114;2023-05-19T09:17:08;101865.03;;;17.47;64.24
61472;BME280;47337;54.068;12.114;2023-05-19T09:19:34;101882.69;;;17.60;64.31
61472;BME280;47337;54.068;12.114;2023-05-19T09:22:01;101863.22;;;17.52;64.17
61472;BME280;47337;54.068;12.114;2023-05-19T09:24:35;101892.38;;;18.20;63.82
61472;BME280;47337;54.068;12.114;2023-05-19T09:27:00;101865.88;;;17.88;63.84
61472;BME280;47337;54.068;12.114;2023-05-19T09:29:26;101864.13;;;17.55;64.12
61472;BME280;47337;54.068;12.114;2023-05-19T09:31:53;101857.03;;;17.73;63.75
61472;BME280;47337;54.068;12.114;2023-05-19T09:34:20;101866.69;;;18.12;63.50
61472;BME280;47337;54.068;12.114;2023-05-19T09:36:49;101868.53;;;17.90;63.89
61472;BME280;47337;54.068;12.114;2023-05-19T09:39:17;101884.47;;;17.85;64.34
61472;BME280;47337;54.068;12.114;2023-05-19T09:41:45;101889.72;;;18.19;64.11
61472;BME280;47337;54.068;12.114;2023-05-19T09:44:21;101884.38;;;18.33;63.81
61472;BME280;47337;54.068;12.114;2023-05-19T09:46:57;101894.97;;;18.37;64.17
61472;BME280;47337;54.068;12.114;2023-05-19T09:49:25;101902.75;;;18.86;63.85
61472;BME280;47337;54.068;12.114;2023-05-19T09:51:54;101892.69;;;19.30;63.08
61472;BME280;47337;54.068;12.114;2023-05-19T09:54:24;101901.66;;;19.19;63.18
61472;BME280;47337;54.068;12.114;2023-05-19T09:56:58;101867.75;;;19.41;62.15
61472;BME280;47337;54.068;12.114;2023-05-19T09:59:26;101852.66;;;19.41;61.67
61472;BME280;47337;54.068;12.114;2023-05-19T10:01:56;101846.69;;;19.09;62.19
61472;BME280;47337;54.068;12.114;2023-05-19T10:04:23;101854.34;;;19.53;61.82
61472;BME280;47337;54.068;12.114;2023-05-19T10:06:52;101831.41;;;19.38;61.14
61472;BME280;47337;54.068;12.114;2023-05-19T10:09:25;101796.94;;;20.04;59.49
61472;BME280;47337;54.068;12.114;2023-05-19T10:11:55;101795.47;;;20.52;58.81
61472;BME280;47337;54.068;12.114;2023-05-19T10:14:22;101771.31;;;21.16;57.61
61472;BME280;47337;54.068;12.114;2023-05-19T10:16:52;101717.47;;;20.89;56.65
61472;BME280;47337;54.068;12.114;2023-05-19T10:19:26;101754.50;;;21.10;57.02
61472;BME280;47337;54.068;12.114;2023-05-19T10:21:52;101672.19;;;20.84;55.43
61472;BME280;47337;54.068;12.114;2023-05-19T10:24:20;101710.81;;;20.63;56.36
61472;BME280;47337;54.068;12.114;2023-05-19T10:26:55;101738.03;;;21.36;56.60
61472;BME280;47337;54.068;12.114;2023-05-19T10:29:27;101716.03;;;21.68;55.73
61472;BME280;47337;54.068;12.114;2023-05-19T10:31:59;101699.34;;;22.00;54.82
61472;BME280;47337;54.068;12.114;2023-05-19T10:34:45;101688.69;;;21.98;54.53
61472;BME280;47337;54.068;12.114;2023-05-19T10:37:56;101639.44;;;21.22;54.05
61472;BME280;47337;54.068;12.114;2023-05-19T10:40:32;101668.00;;;21.63;54.24
61472;BME280;47337;54.068;12.114;2023-05-19T10:45:50;101681.31;;;22.08;53.76
61472;BME280;47337;54.068;12.114;2023-05-19T10:48:16;101689.31;;;22.09;53.87
61472;BME280;47337;54.068;12.114;2023-05-19T10:50:47;101614.25;;;21.77;52.49
61472;BME280;47337;54.068;12.114;2023-05-19T10:53:17;101619.69;;;21.72;52.58
61472;BME280;47337;54.068;12.114;2023-05-19T10:55:44;101650.19;;;22.42;52.53
61472;BME280;47337;54.068;12.114;2023-05-19T10:58:12;101607.03;;;22.20;51.95
61472;BME280;47337;54.068;12.114;2023-05-19T11:00:38;101621.34;;;22.18;52.12
61472;BME280;47337;54.068;12.114;2023-05-19T11:03:12;101619.97;;;22.37;51.70
61472;BME280;47337;54.068;12.114;2023-05-19T11:05:38;101561.94;;;22.04;50.29
61472;BME280;47337;54.068;12.114;2023-05-19T11:08:06;101586.63;;;22.50;50.44
61472;BME280;47337;54.068;12.114;2023-05-19T11:10:36;101565.88;;;22.58;49.75
61472;BME280;47337;54.068;12.114;2023-05-19T11:13:03;101566.53;;;21.60;51.25
61472;BME280;47337;54.068;12.114;2023-05-19T11:15:34;101737.09;;;20.26;57.17
61472;BME280;47337;54.068;12.114;2023-05-19T11:18:03;101831.84;;;19.84;59.92
61472;BME280;47337;54.068;12.114;2023-05-19T11:20:29;101860.28;;;19.82;60.82
61472;BME280;47337;54.068;12.114;2023-05-19T11:25:49;101899.72;;;19.48;62.26
61472;BME280;47337;54.068;12.114;2023-05-19T11:28:20;101936.59;;;18.58;64.37
61472;BME280;47337;54.068;12.114;2023-05-19T11:30:50;101981.00;;;18.01;66.46
61472;BME280;47337;54.068;12.114;2023-05-19T11:33:22;102018.16;;;18.35;66.92
61472;BME280;47337;54.068;12.114;2023-05-19T11:35:53;102025.28;;;18.33;67.40
61472;BME280;47337;54.068;12.114;2023-05-19T11:38:19;102029.69;;;18.23;67.50
61472;BME280;47337;54.068;12.114;2023-05-19T11:40:47;102047.44;;;17.68;69.17
61472;BME280;47337;54.068;12.114;2023-05-19T11:43:14;102079.19;;;17.45;70.53
61472;BME280;47337;54.068;12.114;2023-05-19T11:45:40;102102.38;;;18.05;70.65
61472;BME280;47337;54.068;12.114;2023-05-19T11:48:12;102086.19;;;17.15;71.22
61472;BME280;47337;54.068;12.114;2023-05-19T11:50:42;102112.06;;;17.76;71.81
61472;BME280;47337;54.068;12.114;2023-05-19T11:53:10;102092.63;;;18.22;70.64
61472;BME280;47337;54.068;12.114;2023-05-19T11:55:46;102087.31;;;18.13;70.92
61472;BME280;47337;54.068;12.114;2023-05-19T11:58:12;102107.69;;;17.88;71.87
61472;BME280;47337;54.068;12.114;2023-05-19T12:00:41;102129.47;;;17.10;73.67
61472;BME280;47337;54.068;12.114;2023-05-19T12:03:10;102156.81;;;16.98;75.07
61472;BME280;47337;54.068;12.114;2023-05-19T12:05:37;102180.56;;;16.78;76.48
61472;BME280;47337;54.068;12.114;2023-05-19T12:08:04;102191.28;;;16.91;77.18
61472;BME280;47337;54.068;12.114;2023-05-19T12:10:30;102202.78;;;16.91;78.04
61472;BME280;47337;54.068;12.114;2023-05-19T12:12:58;102202.13;;;17.30;77.78
61472;BME280;47337;54.068;12.114;2023-05-19T12:15:24;102182.88;;;17.63;77.15
61472;BME280;47337;54.068;12.114;2023-05-19T12:20:18;102148.44;;;18.15;75.68
61472;BME280;47337;54.068;12.114;2023-05-19T12:22:45;102147.53;;;17.93;76.11
61472;BME280;47337;54.068;12.114;2023-05-19T12:25:12;102135.16;;;18.06;75.36
61472;BME280;47337;54.068;12.114;2023-05-19T12:27:38;102115.56;;;17.63;75.30
61472;BME280;47337;54.068;12.114;2023-05-19T12:30:06;102138.50;;;17.45;76.24
61472;BME280;47337;54.068;12.114;2023-05-19T12:32:33;102140.34;;;17.59;76.36
61472;BME280;47337;54.068;12.114;2023-05-19T12:35:04;102142.16;;;17.70;76.05
61472;BME280;47337;54.068;12.114;2023-05-19T12:37:31;102144.03;;;18.15;75.51
61472;BME280;47337;54.068;12.114;2023-05-19T12:40:01;102114.81;;;18.40;74.74
61472;BME280;47337;54.068;12.114;2023-05-19T12:42:28;102101.50;;;18.06;75.11
61472;BME280;47337;54.068;12.114;2023-05-19T12:44:56;102109.47;;;18.18;75.21
61472;BME280;47337;54.068;12.114;2023-05-19T12:47:28;102122.75;;;17.89;75.85
61472;BME280;47337;54.068;12.114;2023-05-19T12:52:25;102151.91;;;17.71;77.41
61472;BME280;47337;54.068;12.114;2023-05-19T12:55:01;102146.63;;;17.85;77.32
61472;BME280;47337;54.068;12.114;2023-05-19T12:57:28;102154.63;;;17.88;77.46
61472;BME280;47337;54.068;12.114;2023-05-19T13:00:04;102048.31;;;18.34;72.75
61472;BME280;47337;54.068;12.114;2023-05-19T13:03:00;102002.03;;;19.00;70.53
61472;BME280;47337;54.068;12.114;2023-05-19T13:05:27;101986.03;;;19.09;69.62
61472;BME280;47337;54.068;12.114;2023-05-19T13:08:03;101962.88;;;19.19;69.11
61472;BME280;47337;54.068;12.114;2023-05-19T13:10:29;101947.59;;;19.57;67.69
61472;BME280;47337;54.068;12.114;2023-05-19T13:12:56;101906.72;;;19.57;66.63
61472;BME280;47337;54.068;12.114;2023-05-19T13:15:23;101862.03;;;19.85;64.87
61472;BME280;47337;54.068;12.114;2023-05-19T13:17:50;101839.28;;;20.33;63.41